sensor_id;sensor_type;location;lat;lon;timestamp;P1;durP1;ratioP1;P2;durP2;ratioP2
934;SDS011;454;53.254;10.400;2023-03-30T04:01:15;5.95;;;5.50;;
934;SDS011;454;53.254;10.400;2023-03-30T04:03:42;4.57;;;4.38;;
934;SDS011;454;53.254;10.400;2023-03-30T04:06:09;6.18;;;3.83;;
934;SDS011;454;53.254;10.400;2023-03-30T04:08:36;6.20;;;4.38;;
934;SDS011;454;53.254;10.400;2023-03-30T04:11:03;5.47;;;3.85;;
934;SDS011;454;53.254;10.400;2023-03-30T04:13:32;5.00;;;3.38;;
934;SDS011;454;53.254;10.400;2023-03-30T04:15:58;6.70;;;4.03;;
934;SDS011;454;53.254;10.400;2023-03-30T04:18:27;10.05;;;5.55;;
934;SDS011;454;53.254;10.400;2023-03-30T04:20:57;5.03;;;4.63;;
934;SDS011;454;53.254;10.400;2023-03-30T04:23:26;9.13;;;4.53;;
934;SDS011;454;53.254;10.400;2023-03-30T04:25:55;4.70;;;3.38;;
934;SDS011;454;53.254;10.400;2023-03-30T04:28:21;7.95;;;3.72;;
934;SDS011;454;53.254;10.400;2023-03-30T04:30:48;6.22;;;5.63;;
934;SDS011;454;53.254;10.400;2023-03-30T04:33:15;8.85;;;5.30;;
934;SDS011;454;53.254;10.400;2023-03-30T04:35:43;7.95;;;4.57;;
934;SDS011;454;53.254;10.400;2023-03-30T04:38:10;4.80;;;3.50;;
934;SDS011;454;53.254;10.400;2023-03-30T04:40:37;5.32;;;4.93;;
934;SDS011;454;53.254;10.400;2023-03-30T04:43:04;4.85;;;4.47;;
934;SDS011;454;53.254;10.400;2023-03-30T04:45:31;7.90;;;4.88;;
934;SDS011;454;53.254;10.400;2023-03-30T04:47:57;5.45;;;4.93;;
934;SDS011;454;53.254;10.400;2023-03-30T04:50:24;4.50;;;3.33;;
934;SDS011;454;53.254;10.400;2023-03-30T04:52:53;7.03;;;6.07;;
934;SDS011;454;53.254;10.400;2023-03-30T04:55:19;5.00;;;4.35;;
934;SDS011;454;53.254;10.400;2023-03-30T04:57:46;16.83;;;5.07;;
934;SDS011;454;53.254;10.400;2023-03-30T05:00:13;15.75;;;6.18;;
934;SDS011;454;53.254;10.400;2023-03-30T05:02:41;6.35;;;4.45;;
934;SDS011;454;53.254;10.400;2023-03-30T05:05:08;8.48;;;5.97;;
934;SDS011;454;53.254;10.400;2023-03-30T05:07:34;7.20;;;4.03;;
934;SDS011;454;53.254;10.400;2023-03-30T05:10:03;5.05;;;4.60;;
934;SDS011;454;53.254;10.400;2023-03-30T05:12:30;8.18;;;5.38;;
934;SDS011;454;53.254;10.400;2023-03-30T05:14:56;7.43;;;6.72;;
934;SDS011;454;53.254;10.400;2023-03-30T05:17:23;5.57;;;5.07;;
934;SDS011;454;53.254;10.400;2023-03-30T05:19:50;7.88;;;4.53;;
934;SDS011;454;53.254;10.400;2023-03-30T05:22:17;6.03;;;5.05;;
934;SDS011;454;53.254;10.400;2023-03-30T05:24:44;4.10;;;3.80;;
934;SDS011;454;53.254;10.400;2023-03-30T05:27:12;3.85;;;3.53;;
934;SDS011;454;53.254;10.400;2023-03-30T05:29:39;6.38;;;5.47;;
934;SDS011;454;53.254;10.400;2023-03-30T05:32:06;4.55;;;3.97;;
934;SDS011;454;53.254;10.400;2023-03-30T05:34:33;3.60;;;3.35;;
934;SDS011;454;53.254;10.400;2023-03-30T05:37:00;3.60;;;3.40;;
934;SDS011;454;53.254;10.400;2023-03-30T05:39:26;6.05;;;5.53;;
934;SDS011;454;53.254;10.400;2023-03-30T05:41:53;3.53;;;2.85;;
934;SDS011;454;53.254;10.400;2023-03-30T05:44:21;5.47;;;5.07;;
934;SDS011;454;53.254;10.400;2023-03-30T05:46:48;7.45;;;6.20;;
934;SDS011;454;53.254;10.400;2023-03-30T05:49:15;4.88;;;3.47;;
934;SDS011;454;53.254;10.400;2023-03-30T05:51:42;5.22;;;4.40;;
934;SDS011;454;53.254;10.400;2023-03-30T05:54:09;5.53;;;4.63;;
934;SDS011;454;53.254;10.400;2023-03-30T05:56:36;5.18;;;3.25;;
934;SDS011;454;53.254;10.400;2023-03-30T05:59:04;4.20;;;3.90;;
934;SDS011;454;53.254;10.400;2023-03-30T06:01:32;3.30;;;3.17;;
934;SDS011;454;53.254;10.400;2023-03-30T06:03:58;11.32;;;3.72;;
934;SDS011;454;53.254;10.400;2023-03-30T06:06:25;3.75;;;3.42;;
934;SDS011;454;53.254;10.400;2023-03-30T06:08:52;6.72;;;6.03;;
934;SDS011;454;53.254;10.400;2023-03-30T06:11:19;2.20;;;2.10;;
934;SDS011;454;53.254;10.400;2023-03-30T06:13:45;3.92;;;3.38;;
934;SDS011;454;53.254;10.400;2023-03-30T06:16:12;2.95;;;2.85;;
934;SDS011;454;53.254;10.400;2023-03-30T06:18:40;3.38;;;3.13;;
934;SDS011;454;53.254;10.400;2023-03-30T06:21:07;2.85;;;2.67;;
934;SDS011;454;53.254;10.400;2023-03-30T06:23:34;3.47;;;2.85;;
934;SDS011;454;53.254;10.400;2023-03-30T06:26:01;3.72;;;2.08;;
934;SDS011;454;53.254;10.400;2023-03-30T06:28:29;9.55;;;2.30;;
934;SDS011;454;53.254;10.400;2023-03-30T06:30:56;6.57;;;2.17;;
934;SDS011;454;53.254;10.400;2023-03-30T06:33:22;5.45;;;3.50;;
934;SDS011;454;53.254;10.400;2023-03-30T06:35:51;12.77;;;4.60;;
934;SDS011;454;53.254;10.400;2023-03-30T06:38:18;3.70;;;3.53;;
934;SDS011;454;53.254;10.400;2023-03-30T06:40:46;5.97;;;3.72;;
934;SDS011;454;53.254;10.400;2023-03-30T06:43:14;3.75;;;3.28;;
934;SDS011;454;53.254;10.400;2023-03-30T06:45:41;3.83;;;3.53;;
934;SDS011;454;53.254;10.400;2023-03-30T06:48:08;2.28;;;2.17;;
934;SDS011;454;53.254;10.400;2023-03-30T06:50:35;2.25;;;2.13;;
934;SDS011;454;53.254;10.400;2023-03-30T06:53:05;3.90;;;3.50;;
934;SDS011;454;53.254;10.400;2023-03-30T06:55:32;4.53;;;2.25;;
934;SDS011;454;53.254;10.400;2023-03-30T06:57:59;4.80;;;4.43;;
934;SDS011;454;53.254;10.400;2023-03-30T07:00:26;7.65;;;2.10;;
934;SDS011;454;53.254;10.400;2023-03-30T07:02:53;6.63;;;2.65;;
934;SDS011;454;53.254;10.400;2023-03-30T07:05:20;4.22;;;3.92;;
934;SDS011;454;53.254;10.400;2023-03-30T07:07:48;2.85;;;2.58;;
934;SDS011;454;53.254;10.400;2023-03-30T07:10:17;3.22;;;3.03;;
934;SDS011;454;53.254;10.400;2023-03-30T07:12:43;3.85;;;3.25;;
934;SDS011;454;53.254;10.400;2023-03-30T07:15:10;3.00;;;2.80;;
934;SDS011;454;53.254;10.400;2023-03-30T07:17:37;3.58;;;2.90;;
934;SDS011;454;53.254;10.400;2023-03-30T07:20:05;2.17;;;2.03;;
934;SDS011;454;53.254;10.400;2023-03-30T07:22:33;5.43;;;4.15;;
934;SDS011;454;53.254;10.400;2023-03-30T07:25:00;5.18;;;3.50;;
934;SDS011;454;53.254;10.400;2023-03-30T07:27:28;3.90;;;3.00;;
934;SDS011;454;53.254;10.400;2023-03-30T07:29:54;4.70;;;4.23;;
934;SDS011;454;53.254;10.400;2023-03-30T07:32:21;3.30;;;3.00;;
934;SDS011;454;53.254;10.400;2023-03-30T07:34:48;2.53;;;2.43;;
934;SDS011;454;53.254;10.400;2023-03-30T07:37:14;4.93;;;2.60;;
934;SDS011;454;53.254;10.400;2023-03-30T07:39:41;3.70;;;2.33;;
934;SDS011;454;53.254;10.400;2023-03-30T07:42:08;3.50;;;3.20;;
934;SDS011;454;53.254;10.400;2023-03-30T07:44:36;2.17;;;2.13;;
934;SDS011;454;53.254;10.400;2023-03-30T07:47:03;4.73;;;3.10;;
934;SDS011;454;53.254;10.400;2023-03-30T07:49:31;2.60;;;2.40;;
934;SDS011;454;53.254;10.400;2023-03-30T07:51:58;2.83;;;2.10;;
934;SDS011;454;53.254;10.400;2023-03-30T07:54:25;2.73;;;2.40;;
934;SDS011;454;53.254;10.400;2023-03-30T07:56:52;3.17;;;2.73;;
934;SDS011;454;53.254;10.400;2023-03-30T07:59:19;3.33;;;1.97;;
934;SDS011;454;53.254;10.400;2023-03-30T08:01:48;2.90;;;2.70;;
934;SDS011;454;53.254;10.400;2023-03-30T08:04:16;2.77;;;2.67;;
934;SDS011;454;53.254;10.400;2023-03-30T08:06:42;2.37;;;2.27;;
934;SDS011;454;53.254;10.400;2023-03-30T08:09:09;2.80;;;2.50;;
934;SDS011;454;53.254;10.400;2023-03-30T08:11:37;7.43;;;2.20;;
934;SDS011;454;53.254;10.400;2023-03-30T08:14:04;2.30;;;2.10;;
934;SDS011;454;53.254;10.400;2023-03-30T08:16:31;3.43;;;3.13;;
934;SDS011;454;53.254;10.400;2023-03-30T08:18:59;5.63;;;3.17;;
934;SDS011;454;53.254;10.400;2023-03-30T08:21:25;4.10;;;2.23;;
934;SDS011;454;53.254;10.400;2023-03-30T08:23:52;3.70;;;3.20;;
934;SDS011;454;53.254;10.400;2023-03-30T08:26:21;4.10;;;3.73;;
934;SDS011;454;53.254;10.400;2023-03-30T08:28:48;2.17;;;1.97;;
934;SDS011;454;53.254;10.400;2023-03-30T08:31:15;1.93;;;1.70;;
934;SDS011;454;53.254;10.400;2023-03-30T08:33:42;3.50;;;3.00;;
934;SDS011;454;53.254;10.400;2023-03-30T08:36:11;5.37;;;3.07;;
934;SDS011;454;53.254;10.400;2023-03-30T08:38:38;2.60;;;2.40;;
934;SDS011;454;53.254;10.400;2023-03-30T08:41:12;4.13;;;3.07;;
934;SDS011;454;53.254;10.400;2023-03-30T08:44:07;4.90;;;2.07;;
934;SDS011;454;53.254;10.400;2023-03-30T08:46:39;4.90;;;3.00;;
934;SDS011;454;53.254;10.400;2023-03-30T08:49:11;2.07;;;1.97;;
934;SDS011;454;53.254;10.400;2023-03-30T08:51:43;3.70;;;2.40;;
934;SDS011;454;53.254;10.400;2023-03-30T08:54:11;9.33;;;3.10;;
934;SDS011;454;53.254;10.400;2023-03-30T08:56:54;3.10;;;2.80;;
934;SDS011;454;53.254;10.400;2023-03-30T08:59:31;5.57;;;1.80;;
934;SDS011;454;53.254;10.400;2023-03-30T09:02:11;5.47;;;1.77;;
934;SDS011;454;53.254;10.400;2023-03-30T09:04:44;2.57;;;2.47;;
934;SDS011;454;53.254;10.400;2023-03-30T09:07:23;4.10;;;3.17;;
934;SDS011;454;53.254;10.400;2023-03-30T09:09:52;4.30;;;3.90;;
934;SDS011;454;53.254;10.400;2023-03-30T09:12:23;1.73;;;1.73;;
934;SDS011;454;53.254;10.400;2023-03-30T09:15:02;2.70;;;2.60;;
934;SDS011;454;53.254;10.400;2023-03-30T09:17:33;11.30;;;3.07;;
934;SDS011;454;53.254;10.400;2023-03-30T09:20:04;1.80;;;1.70;;
934;SDS011;454;53.254;10.400;2023-03-30T09:22:36;3.93;;;3.10;;
934;SDS011;454;53.254;10.400;2023-03-30T09:25:11;4.17;;;2.93;;
934;SDS011;454;53.254;10.400;2023-03-30T09:27:41;3.37;;;2.10;;
934;SDS011;454;53.254;10.400;2023-03-30T09:30:15;1.90;;;1.87;;
934;SDS011;454;53.254;10.400;2023-03-30T09:32:45;4.40;;;2.67;;
934;SDS011;454;53.254;10.400;2023-03-30T09:35:24;7.20;;;2.10;;
934;SDS011;454;53.254;10.400;2023-03-30T09:37:58;1.17;;;1.17;;
934;SDS011;454;53.254;10.400;2023-03-30T09:40:31;1.00;;;1.00;;
934;SDS011;454;53.254;10.400;2023-03-30T09:43:07;2.20;;;1.20;;
934;SDS011;454;53.254;10.400;2023-03-30T09:45:39;1.33;;;1.23;;
934;SDS011;454;53.254;10.400;2023-03-30T09:48:07;1.47;;;1.33;;
934;SDS011;454;53.254;10.400;2023-03-30T09:50:35;0.97;;;0.97;;
934;SDS011;454;53.254;10.400;2023-03-30T09:53:07;3.67;;;1.20;;
934;SDS011;454;53.254;10.400;2023-03-30T09:55:52;0.97;;;0.87;;
934;SDS011;454;53.254;10.400;2023-03-30T09:58:25;0.93;;;0.90;;
934;SDS011;454;53.254;10.400;2023-03-30T10:01:00;2.43;;;1.30;;
934;SDS011;454;53.254;10.400;2023-03-30T10:03:29;2.00;;;1.20;;
934;SDS011;454;53.254;10.400;2023-03-30T10:06:00;2.03;;;1.00;;
934;SDS011;454;53.254;10.400;2023-03-30T10:08:30;3.63;;;1.27;;
934;SDS011;454;53.254;10.400;2023-03-30T10:10:57;1.30;;;1.23;;
934;SDS011;454;53.254;10.400;2023-03-30T10:13:27;1.17;;;1.00;;
934;SDS011;454;53.254;10.400;2023-03-30T10:15:59;1.27;;;1.17;;
934;SDS011;454;53.254;10.400;2023-03-30T10:18:34;1.50;;;1.40;;
934;SDS011;454;53.254;10.400;2023-03-30T10:21:05;2.97;;;1.20;;
934;SDS011;454;53.254;10.400;2023-03-30T10:23:39;0.83;;;0.80;;
934;SDS011;454;53.254;10.400;2023-03-30T10:26:10;0.43;;;0.43;;
934;SDS011;454;53.254;10.400;2023-03-30T10:28:49;3.03;;;1.50;;
934;SDS011;454;53.254;10.400;2023-03-30T10:31:18;0.80;;;0.80;;
934;SDS011;454;53.254;10.400;2023-03-30T10:33:45;0.63;;;0.63;;
934;SDS011;454;53.254;10.400;2023-03-30T10:36:13;0.90;;;0.90;;
934;SDS011;454;53.254;10.400;2023-03-30T10:38:43;1.10;;;1.10;;
934;SDS011;454;53.254;10.400;2023-03-30T10:41:11;1.70;;;1.00;;
934;SDS011;454;53.254;10.400;2023-03-30T10:43:40;1.00;;;0.90;;
934;SDS011;454;53.254;10.400;2023-03-30T10:46:10;0.70;;;0.70;;
934;SDS011;454;53.254;10.400;2023-03-30T10:51:30;0.80;;;0.80;;
934;SDS011;454;53.254;10.400;2023-03-30T10:54:08;1.07;;;1.07;;
934;SDS011;454;53.254;10.400;2023-03-30T10:56:42;0.83;;;0.70;;
934;SDS011;454;53.254;10.400;2023-03-30T10:59:15;0.70;;;0.70;;
934;SDS011;454;53.254;10.400;2023-03-30T11:01:53;1.00;;;1.00;;
934;SDS011;454;53.254;10.400;2023-03-30T11:04:27;0.70;;;0.70;;
934;SDS011;454;53.254;10.400;2023-03-30T11:06:59;0.80;;;0.80;;
934;SDS011;454;53.254;10.400;2023-03-30T11:09:29;1.13;;;0.90;;
934;SDS011;454;53.254;10.400;2023-03-30T11:12:00;0.30;;;0.30;;
934;SDS011;454;53.254;10.400;2023-03-30T11:14:41;4.30;;;0.87;;
934;SDS011;454;53.254;10.400;2023-03-30T11:17:15;0.40;;;0.37;;
934;SDS011;454;53.254;10.400;2023-03-30T11:19:46;0.60;;;0.60;;
934;SDS011;454;53.254;10.400;2023-03-30T11:22:18;2.17;;;0.67;;
934;SDS011;454;53.254;10.400;2023-03-30T11:24:52;3.53;;;0.93;;
934;SDS011;454;53.254;10.400;2023-03-30T11:27:21;0.97;;;0.97;;
934;SDS011;454;53.254;10.400;2023-03-30T11:29:52;0.60;;;0.60;;
934;SDS011;454;53.254;10.400;2023-03-30T11:32:26;7.10;;;1.27;;
934;SDS011;454;53.254;10.400;2023-03-30T11:34:59;0.43;;;0.43;;
934;SDS011;454;53.254;10.400;2023-03-30T11:37:32;0.63;;;0.63;;
934;SDS011;454;53.254;10.400;2023-03-30T11:40:12;3.50;;;1.37;;
934;SDS011;454;53.254;10.400;2023-03-30T11:42:42;0.60;;;0.60;;
934;SDS011;454;53.254;10.400;2023-03-30T11:45:16;0.47;;;0.47;;
934;SDS011;454;53.254;10.400;2023-03-30T11:47:50;1.47;;;0.57;;
934;SDS011;454;53.254;10.400;2023-03-30T11:50:31;0.50;;;0.50;;
934;SDS011;454;53.254;10.400;2023-03-30T11:53:09;0.40;;;0.40;;
934;SDS011;454;53.254;10.400;2023-03-30T11:55:46;1.90;;;0.30;;
934;SDS011;454;53.254;10.400;2023-03-30T11:58:21;4.60;;;0.60;;
934;SDS011;454;53.254;10.400;2023-03-30T12:00:59;0.50;;;0.50;;
934;SDS011;454;53.254;10.400;2023-03-30T12:03:38;0.30;;;0.30;;
934;SDS011;454;53.254;10.400;2023-03-30T12:06:17;0.40;;;0.40;;
934;SDS011;454;53.254;10.400;2023-03-30T12:08:55;0.53;;;0.53;;
934;SDS011;454;53.254;10.400;2023-03-30T12:11:46;0.70;;;0.60;;
934;SDS011;454;53.254;10.400;2023-03-30T12:14:24;0.30;;;0.30;;
934;SDS011;454;53.254;10.400;2023-03-30T12:16:58;9.33;;;1.50;;
934;SDS011;454;53.254;10.400;2023-03-30T12:19:33;0.53;;;0.53;;
934;SDS011;454;53.254;10.400;2023-03-30T12:22:08;0.40;;;0.40;;
934;SDS011;454;53.254;10.400;2023-03-30T12:24:41;2.10;;;0.73;;
934;SDS011;454;53.254;10.400;2023-03-30T12:27:16;1.13;;;0.57;;
934;SDS011;454;53.254;10.400;2023-03-30T12:29:43;1.23;;;1.23;;
934;SDS011;454;53.254;10.400;2023-03-30T12:32:18;1.07;;;1.07;;
934;SDS011;454;53.254;10.400;2023-03-30T12:34:47;0.20;;;0.20;;
934;SDS011;454;53.254;10.400;2023-03-30T12:37:15;0.20;;;0.20;;
934;SDS011;454;53.254;10.400;2023-03-30T12:39:45;0.53;;;0.53;;
934;SDS011;454;53.254;10.400;2023-03-30T12:42:16;0.30;;;0.30;;
934;SDS011;454;53.254;10.400;2023-03-30T12:44:55;0.60;;;0.60;;
934;SDS011;454;53.254;10.400;2023-03-30T12:48:04;2.40;;;0.77;;
934;SDS011;454;53.254;10.400;2023-03-30T12:50:51;0.20;;;0.20;;
934;SDS011;454;53.254;10.400;2023-03-30T12:53:36;0.30;;;0.30;;
934;SDS011;454;53.254;10.400;2023-03-30T12:56:21;0.37;;;0.37;;
934;SDS011;454;53.254;10.400;2023-03-30T12:59:06;0.70;;;0.40;;
934;SDS011;454;53.254;10.400;2023-03-30T13:01:50;5.67;;;0.80;;
934;SDS011;454;53.254;10.400;2023-03-30T13:04:25;0.60;;;0.60;;
934;SDS011;454;53.254;10.400;2023-03-30T13:06:58;1.33;;;0.90;;
934;SDS011;454;53.254;10.400;2023-03-30T13:09:29;0.57;;;0.57;;
934;SDS011;454;53.254;10.400;2023-03-30T13:12:05;2.00;;;1.67;;
934;SDS011;454;53.254;10.400;2023-03-30T13:15:04;4.83;;;1.37;;
934;SDS011;454;53.254;10.400;2023-03-30T13:17:57;4.43;;;1.17;;
934;SDS011;454;53.254;10.400;2023-03-30T13:20:27;0.67;;;0.67;;
934;SDS011;454;53.254;10.400;2023-03-30T13:25:59;0.97;;;0.97;;
934;SDS011;454;53.254;10.400;2023-03-30T13:28:35;0.70;;;0.70;;
934;SDS011;454;53.254;10.400;2023-03-30T13:31:17;0.27;;;0.27;;
934;SDS011;454;53.254;10.400;2023-03-30T13:34:05;2.53;;;1.10;;
934;SDS011;454;53.254;10.400;2023-03-30T13:36:41;0.50;;;0.50;;
934;SDS011;454;53.254;10.400;2023-03-30T13:39:12;0.50;;;0.50;;
934;SDS011;454;53.254;10.400;2023-03-30T13:41:47;1.00;;;1.00;;
934;SDS011;454;53.254;10.400;2023-03-30T13:44:25;1.40;;;0.80;;
934;SDS011;454;53.254;10.400;2023-03-30T13:47:21;1.20;;;0.40;;
934;SDS011;454;53.254;10.400;2023-03-30T13:49:59;1.13;;;1.13;;
934;SDS011;454;53.254;10.400;2023-03-30T13:52:29;0.50;;;0.50;;
934;SDS011;454;53.254;10.400;2023-03-30T13:54:58;0.70;;;0.70;;
934;SDS011;454;53.254;10.400;2023-03-30T13:57:27;1.00;;;1.00;;
934;SDS011;454;53.254;10.400;2023-03-30T14:00:00;0.53;;;0.53;;
934;SDS011;454;53.254;10.400;2023-03-30T14:02:32;1.73;;;1.63;;
934;SDS011;454;53.254;10.400;2023-03-30T14:05:09;7.03;;;1.40;;
934;SDS011;454;53.254;10.400;2023-03-30T14:07:39;0.27;;;0.27;;
934;SDS011;454;53.254;10.400;2023-03-30T14:10:12;2.60;;;1.30;;
934;SDS011;454;53.254;10.400;2023-03-30T14:12:40;3.07;;;1.23;;
934;SDS011;454;53.254;10.400;2023-03-30T14:15:16;1.70;;;1.70;;
934;SDS011;454;53.254;10.400;2023-03-30T14:17:47;0.77;;;0.60;;
934;SDS011;454;53.254;10.400;2023-03-30T14:20:18;0.50;;;0.50;;
934;SDS011;454;53.254;10.400;2023-03-30T14:22:53;1.43;;;1.00;;
934;SDS011;454;53.254;10.400;2023-03-30T14:25:25;4.77;;;1.73;;
934;SDS011;454;53.254;10.400;2023-03-30T14:27:54;3.40;;;2.30;;
934;SDS011;454;53.254;10.400;2023-03-30T14:30:23;1.33;;;1.23;;
934;SDS011;454;53.254;10.400;2023-03-30T14:33:04;3.00;;;1.10;;
934;SDS011;454;53.254;10.400;2023-03-30T14:35:32;3.30;;;0.57;;
934;SDS011;454;53.254;10.400;2023-03-30T14:38:00;2.00;;;0.90;;
934;SDS011;454;53.254;10.400;2023-03-30T14:40:27;6.23;;;1.50;;
934;SDS011;454;53.254;10.400;2023-03-30T14:42:53;0.40;;;0.40;;
934;SDS011;454;53.254;10.400;2023-03-30T14:45:20;2.13;;;0.63;;
934;SDS011;454;53.254;10.400;2023-03-30T14:47:47;1.80;;;0.80;;
934;SDS011;454;53.254;10.400;2023-03-30T14:50:16;0.37;;;0.37;;
934;SDS011;454;53.254;10.400;2023-03-30T14:52:44;2.07;;;0.90;;
934;SDS011;454;53.254;10.400;2023-03-30T14:55:12;0.40;;;0.40;;
934;SDS011;454;53.254;10.400;2023-03-30T14:57:44;2.30;;;0.60;;
934;SDS011;454;53.254;10.400;2023-03-30T15:00:12;0.50;;;0.50;;
934;SDS011;454;53.254;10.400;2023-03-30T15:02:42;0.30;;;0.30;;
934;SDS011;454;53.254;10.400;2023-03-30T15:05:10;1.57;;;0.50;;
934;SDS011;454;53.254;10.400;2023-03-30T15:07:38;4.23;;;0.93;;
934;SDS011;454;53.254;10.400;2023-03-30T15:10:05;0.60;;;0.60;;
934;SDS011;454;53.254;10.400;2023-03-30T15:12:34;5.03;;;0.50;;
934;SDS011;454;53.254;10.400;2023-03-30T15:15:05;0.23;;;0.23;;
934;SDS011;454;53.254;10.400;2023-03-30T15:17:34;0.50;;;0.50;;
934;SDS011;454;53.254;10.400;2023-03-30T15:20:04;0.93;;;0.40;;
934;SDS011;454;53.254;10.400;2023-03-30T15:22:33;7.53;;;0.70;;
934;SDS011;454;53.254;10.400;2023-03-30T15:25:06;1.40;;;1.30;;
934;SDS011;454;53.254;10.400;2023-03-30T15:27:36;0.80;;;0.80;;
934;SDS011;454;53.254;10.400;2023-03-30T15:30:04;0.40;;;0.40;;
934;SDS011;454;53.254;10.400;2023-03-30T15:32:33;1.03;;;0.53;;
934;SDS011;454;53.254;10.400;2023-03-30T15:35:07;0.80;;;0.40;;
934;SDS011;454;53.254;10.400;2023-03-30T15:37:50;2.57;;;1.03;;
934;SDS011;454;53.254;10.400;2023-03-30T15:40:26;0.50;;;0.23;;
934;SDS011;454;53.254;10.400;2023-03-30T15:45:43;0.20;;;0.20;;
934;SDS011;454;53.254;10.400;2023-03-30T15:48:13;1.40;;;0.27;;
934;SDS011;454;53.254;10.400;2023-03-30T15:50:43;0.30;;;0.30;;
934;SDS011;454;53.254;10.400;2023-03-30T15:53:16;1.90;;;0.43;;
934;SDS011;454;53.254;10.400;2023-03-30T15:55:48;0.20;;;0.20;;
934;SDS011;454;53.254;10.400;2023-03-30T15:58:17;0.43;;;0.43;;
934;SDS011;454;53.254;10.400;2023-03-30T16:00:49;0.33;;;0.33;;
934;SDS011;454;53.254;10.400;2023-03-30T16:03:17;2.97;;;1.70;;
934;SDS011;454;53.254;10.400;2023-03-30T16:05:56;0.40;;;0.40;;
934;SDS011;454;53.254;10.400;2023-03-30T16:08:22;1.33;;;0.70;;
934;SDS011;454;53.254;10.400;2023-03-30T16:10:50;1.80;;;0.80;;
934;SDS011;454;53.254;10.400;2023-03-30T16:13:17;3.50;;;2.93;;
934;SDS011;454;53.254;10.400;2023-03-30T16:15:44;0.30;;;0.30;;
934;SDS011;454;53.254;10.400;2023-03-30T16:18:11;0.70;;;0.70;;
934;SDS011;454;53.254;10.400;2023-03-30T16:20:38;0.70;;;0.63;;
934;SDS011;454;53.254;10.400;2023-03-30T16:23:04;0.20;;;0.20;;
934;SDS011;454;53.254;10.400;2023-03-30T16:25:32;0.50;;;0.50;;
934;SDS011;454;53.254;10.400;2023-03-30T16:28:00;1.40;;;0.60;;
934;SDS011;454;53.254;10.400;2023-03-30T16:30:27;0.73;;;0.73;;
934;SDS011;454;53.254;10.400;2023-03-30T16:32:58;0.30;;;0.30;;
934;SDS011;454;53.254;10.400;2023-03-30T16:35:24;1.33;;;0.50;;
934;SDS011;454;53.254;10.400;2023-03-30T16:37:51;0.60;;;0.53;;
934;SDS011;454;53.254;10.400;2023-03-30T16:40:20;1.47;;;0.60;;
934;SDS011;454;53.254;10.400;2023-03-30T16:42:53;0.30;;;0.30;;
934;SDS011;454;53.254;10.400;2023-03-30T16:45:21;3.80;;;2.20;;
934;SDS011;454;53.254;10.400;2023-03-30T16:47:47;1.37;;;1.37;;
934;SDS011;454;53.254;10.400;2023-03-30T16:50:17;1.13;;;0.97;;
934;SDS011;454;53.254;10.400;2023-03-30T16:52:46;0.50;;;0.50;;
934;SDS011;454;53.254;10.400;2023-03-30T16:55:12;0.40;;;0.40;;
934;SDS011;454;53.254;10.400;2023-03-30T16:57:40;0.93;;;0.47;;
934;SDS011;454;53.254;10.400;2023-03-30T17:00:17;0.40;;;0.40;;
934;SDS011;454;53.254;10.400;2023-03-30T17:02:48;0.30;;;0.30;;
934;SDS011;454;53.254;10.400;2023-03-30T17:05:15;0.93;;;0.33;;
934;SDS011;454;53.254;10.400;2023-03-30T17:07:42;1.47;;;0.97;;
934;SDS011;454;53.254;10.400;2023-03-30T17:10:13;0.50;;;0.50;;
934;SDS011;454;53.254;10.400;2023-03-30T17:12:43;0.90;;;0.70;;
934;SDS011;454;53.254;10.400;2023-03-30T17:15:10;4.27;;;0.63;;
934;SDS011;454;53.254;10.400;2023-03-30T17:17:37;3.10;;;0.60;;
934;SDS011;454;53.254;10.400;2023-03-30T17:20:19;2.33;;;0.70;;
934;SDS011;454;53.254;10.400;2023-03-30T17:22:51;1.60;;;1.47;;
934;SDS011;454;53.254;10.400;2023-03-30T17:25:18;0.40;;;0.40;;
934;SDS011;454;53.254;10.400;2023-03-30T17:27:47;0.70;;;0.70;;
934;SDS011;454;53.254;10.400;2023-03-30T17:30:16;4.43;;;0.77;;
934;SDS011;454;53.254;10.400;2023-03-30T17:32:45;0.70;;;0.70;;
934;SDS011;454;53.254;10.400;2023-03-30T17:35:11;1.23;;;0.50;;
934;SDS011;454;53.254;10.400;2023-03-30T17:37:40;5.20;;;1.53;;
934;SDS011;454;53.254;10.400;2023-03-30T17:40:12;0.60;;;0.60;;
934;SDS011;454;53.254;10.400;2023-03-30T17:42:41;1.10;;;1.07;;
934;SDS011;454;53.254;10.400;2023-03-30T17:45:09;6.37;;;1.00;;
934;SDS011;454;53.254;10.400;2023-03-30T17:47:36;3.85;;;1.23;;
934;SDS011;454;53.254;10.400;2023-03-30T17:50:10;1.73;;;0.70;;
934;SDS011;454;53.254;10.400;2023-03-30T17:52:47;1.10;;;1.10;;
934;SDS011;454;53.254;10.400;2023-03-30T17:55:14;10.90;;;1.30;;
934;SDS011;454;53.254;10.400;2023-03-30T17:57:42;2.10;;;0.87;;
934;SDS011;454;53.254;10.400;2023-03-30T18:00:13;3.80;;;1.33;;
934;SDS011;454;53.254;10.400;2023-03-30T18:02:42;0.93;;;0.93;;
934;SDS011;454;53.254;10.400;2023-03-30T18:05:09;0.80;;;0.80;;
934;SDS011;454;53.254;10.400;2023-03-30T18:07:35;4.13;;;2.10;;
934;SDS011;454;53.254;10.400;2023-03-30T18:10:10;1.08;;;0.98;;
934;SDS011;454;53.254;10.400;2023-03-30T18:12:44;4.15;;;1.58;;
934;SDS011;454;53.254;10.400;2023-03-30T18:15:11;1.70;;;1.05;;
934;SDS011;454;53.254;10.400;2023-03-30T18:17:38;2.15;;;1.30;;
934;SDS011;454;53.254;10.400;2023-03-30T18:20:18;0.90;;;0.90;;
934;SDS011;454;53.254;10.400;2023-03-30T18:22:47;4.85;;;1.42;;
934;SDS011;454;53.254;10.400;2023-03-30T18:25:16;0.80;;;0.80;;
934;SDS011;454;53.254;10.400;2023-03-30T18:27:44;0.50;;;0.50;;
934;SDS011;454;53.254;10.400;2023-03-30T18:30:13;1.33;;;0.80;;
934;SDS011;454;53.254;10.400;2023-03-30T18:32:46;1.10;;;0.70;;
934;SDS011;454;53.254;10.400;2023-03-30T18:35:14;0.70;;;0.70;;
934;SDS011;454;53.254;10.400;2023-03-30T18:37:40;1.98;;;0.75;;
934;SDS011;454;53.254;10.400;2023-03-30T18:40:10;9.40;;;2.50;;
934;SDS011;454;53.254;10.400;2023-03-30T18:42:42;5.40;;;1.73;;
934;SDS011;454;53.254;10.400;2023-03-30T18:45:13;2.25;;;2.15;;
934;SDS011;454;53.254;10.400;2023-03-30T18:47:41;3.50;;;1.05;;
934;SDS011;454;53.254;10.400;2023-03-30T18:50:12;2.80;;;0.93;;
934;SDS011;454;53.254;10.400;2023-03-30T18:52:41;21.90;;;2.33;;
934;SDS011;454;53.254;10.400;2023-03-30T18:55:08;1.00;;;0.95;;
934;SDS011;454;53.254;10.400;2023-03-30T18:57:35;3.53;;;0.85;;
934;SDS011;454;53.254;10.400;2023-03-30T19:02:39;2.35;;;0.85;;
934;SDS011;454;53.254;10.400;2023-03-30T19:05:06;1.40;;;1.00;;
934;SDS011;454;53.254;10.400;2023-03-30T19:07:34;1.65;;;1.58;;
934;SDS011;454;53.254;10.400;2023-03-30T19:10:01;1.73;;;0.88;;
934;SDS011;454;53.254;10.400;2023-03-30T19:12:28;3.03;;;2.38;;
934;SDS011;454;53.254;10.400;2023-03-30T19:14:54;0.82;;;0.82;;
934;SDS011;454;53.254;10.400;2023-03-30T19:17:22;0.20;;;0.20;;
934;SDS011;454;53.254;10.400;2023-03-30T19:19:49;3.60;;;1.10;;
934;SDS011;454;53.254;10.400;2023-03-30T19:22:16;4.38;;;1.27;;
934;SDS011;454;53.254;10.400;2023-03-30T19:24:42;1.20;;;1.00;;
934;SDS011;454;53.254;10.400;2023-03-30T19:27:09;0.47;;;0.47;;
934;SDS011;454;53.254;10.400;2023-03-30T19:29:37;1.88;;;0.73;;
934;SDS011;454;53.254;10.400;2023-03-30T19:32:04;3.45;;;1.45;;
934;SDS011;454;53.254;10.400;2023-03-30T19:34:32;0.93;;;0.85;;
934;SDS011;454;53.254;10.400;2023-03-30T19:36:59;7.57;;;1.50;;
934;SDS011;454;53.254;10.400;2023-03-30T19:39:26;1.83;;;0.77;;
934;SDS011;454;53.254;10.400;2023-03-30T19:41:52;0.43;;;0.43;;
934;SDS011;454;53.254;10.400;2023-03-30T19:44:19;0.32;;;0.32;;
934;SDS011;454;53.254;10.400;2023-03-30T19:46:46;0.47;;;0.47;;
934;SDS011;454;53.254;10.400;2023-03-30T19:49:12;1.58;;;1.13;;
934;SDS011;454;53.254;10.400;2023-03-30T19:51:40;0.77;;;0.77;;
934;SDS011;454;53.254;10.400;2023-03-30T19:54:07;0.82;;;0.60;;
934;SDS011;454;53.254;10.400;2023-03-30T19:56:34;0.85;;;0.85;;
934;SDS011;454;53.254;10.400;2023-03-30T19:59:02;4.40;;;1.27;;
934;SDS011;454;53.254;10.400;2023-03-30T20:01:28;4.13;;;0.85;;